createdAt,value
2019-02-27T00:01:42.718Z,3.93
2019-02-27T00:04:12.063Z,3.85
2019-02-27T00:06:41.442Z,3.73
2019-02-27T00:09:10.854Z,3.74
2019-02-27T00:11:40.226Z,3.78
2019-02-27T00:14:09.571Z,3.69
2019-02-27T00:16:39.028Z,3.72
2019-02-27T00:19:08.428Z,3.68
2019-02-27T00:21:37.799Z,3.72
2019-02-27T00:24:07.205Z,3.66
2019-02-27T00:26:36.576Z,3.62
2019-02-27T00:29:05.916Z,3.62
2019-02-27T00:31:35.366Z,3.45
2019-02-27T00:34:04.711Z,3.28
2019-02-27T00:36:34.084Z,3.25
2019-02-27T00:39:03.495Z,3.05
2019-02-27T00:41:32.868Z,2.99
2019-02-27T00:44:02.242Z,3.00
2019-02-27T00:46:31.745Z,2.98
2019-02-27T00:49:01.114Z,3.00
2019-02-27T00:51:30.459Z,2.99
2019-02-27T00:53:59.833Z,3.01
2019-02-27T00:56:29.259Z,2.85
2019-02-27T00:59:00.197Z,2.66
2019-02-27T01:01:29.744Z,2.61
2019-02-27T01:04:02.339Z,2.49
2019-02-27T01:06:30.631Z,2.39
2019-02-27T01:09:00.003Z,2.23
2019-02-27T01:11:29.342Z,2.15
2019-02-27T01:13:58.720Z,2.08
2019-02-27T01:16:28.059Z,2.00
2019-02-27T01:18:57.435Z,1.85
2019-02-27T01:21:26.775Z,1.88
2019-02-27T01:23:56.148Z,1.96
2019-02-27T01:26:30.651Z,1.90
2019-02-27T01:28:56.560Z,1.79
2019-02-27T01:31:25.907Z,1.73
2019-02-27T01:33:55.280Z,1.66
2019-02-27T01:36:25.283Z,1.66
2019-02-27T01:38:54.670Z,1.63
2019-02-27T01:41:24.577Z,1.53
2019-02-27T01:43:54.467Z,1.47
2019-02-27T01:46:25.172Z,1.42
2019-02-27T01:48:54.878Z,1.44
2019-02-27T01:51:25.738Z,1.42
2019-02-27T01:53:55.286Z,1.39
2019-02-27T01:56:28.848Z,1.40
2019-02-27T01:58:55.694Z,1.32
2019-02-27T02:01:29.814Z,1.31
2019-02-27T02:03:57.475Z,1.26
2019-02-27T02:06:26.815Z,1.26
2019-02-27T02:09:26.940Z,1.25
2019-02-27T02:11:56.467Z,1.32
2019-02-27T02:14:55.474Z,1.33
2019-02-27T02:17:30.760Z,1.27
2019-02-27T02:20:20.796Z,1.20
2019-02-27T02:22:58.994Z,1.16
2019-02-27T02:25:47.924Z,1.20
2019-02-27T02:28:23.335Z,1.12
2019-02-27T02:31:05.060Z,1.08
2019-02-27T02:33:45.144Z,1.09
2019-02-27T02:36:26.638Z,1.05
2019-02-27T02:39:09.827Z,1.00
2019-02-27T02:41:48.044Z,0.99
2019-02-27T02:44:25.649Z,0.95
2019-02-27T02:47:03.868Z,0.85
2019-02-27T02:49:48.060Z,0.91
2019-02-27T02:52:23.463Z,0.99
2019-02-27T02:55:01.716Z,0.85
2019-02-27T02:57:55.274Z,0.77
2019-02-27T03:00:48.709Z,0.73
2019-02-27T03:03:39.057Z,0.79
2019-02-27T03:06:34.647Z,0.90
2019-02-27T03:09:18.691Z,0.96
2019-02-27T03:12:07.619Z,1.01
2019-02-27T03:14:42.867Z,0.95
2019-02-27T03:17:19.206Z,0.89
2019-02-27T03:19:54.795Z,0.80
2019-02-27T03:22:41.541Z,0.78
2019-02-27T03:25:16.471Z,0.78
2019-02-27T03:27:54.617Z,0.78
2019-02-27T03:30:38.815Z,0.76
2019-02-27T03:33:33.287Z,0.76
2019-02-27T03:36:11.776Z,0.73
2019-02-27T03:38:49.880Z,0.71
2019-02-27T03:41:25.235Z,0.69
2019-02-27T03:44:12.663Z,0.72
2019-02-27T03:46:45.266Z,0.71
2019-02-27T03:49:46.169Z,0.70
2019-02-27T03:52:24.388Z,0.69
2019-02-27T03:55:17.651Z,0.63
2019-02-27T03:57:56.137Z,0.63
2019-02-27T04:00:44.108Z,0.60
2019-02-27T04:03:40.689Z,0.56
2019-02-27T04:06:19.753Z,0.64
2019-02-27T04:08:56.791Z,0.72
2019-02-27T04:11:26.237Z,0.72
2019-02-27T04:14:02.975Z,0.78
2019-02-27T04:16:29.316Z,0.75
2019-02-27T04:19:03.036Z,0.71
2019-02-27T04:21:28.761Z,0.73
2019-02-27T04:23:58.101Z,0.63
2019-02-27T04:26:27.473Z,0.62
2019-02-27T04:28:56.819Z,0.61
2019-02-27T04:31:29.662Z,0.59
2019-02-27T04:34:00.171Z,0.58
2019-02-27T04:36:28.319Z,0.51
2019-02-27T04:38:59.981Z,0.45
2019-02-27T04:41:28.744Z,0.53
2019-02-27T04:43:58.091Z,0.54
2019-02-27T04:46:27.464Z,0.36
2019-02-27T04:48:56.806Z,0.25
2019-02-27T04:51:26.472Z,0.13
2019-02-27T04:53:55.823Z,0.02
2019-02-27T04:56:25.214Z,-0.06
2019-02-27T04:58:54.560Z,0.03
2019-02-27T05:01:23.941Z,-0.19
2019-02-27T05:03:53.348Z,-0.19
2019-02-27T05:06:22.738Z,-0.27
2019-02-27T05:08:52.339Z,-0.26
2019-02-27T05:11:21.717Z,-0.30
2019-02-27T05:13:54.105Z,-0.28
2019-02-27T05:16:22.145Z,-0.25
2019-02-27T05:18:51.497Z,-0.22
2019-02-27T05:21:20.875Z,-0.16
2019-02-27T05:23:50.220Z,-0.09
2019-02-27T05:26:19.744Z,-0.04
2019-02-27T05:28:49.094Z,0.06
2019-02-27T05:31:19.157Z,0.10
2019-02-27T05:33:48.489Z,0.17
2019-02-27T05:36:17.859Z,0.19
2019-02-27T05:38:47.198Z,0.04
2019-02-27T05:41:16.651Z,-0.08
2019-02-27T05:43:48.565Z,-0.19
2019-02-27T05:46:17.079Z,-0.22
2019-02-27T05:48:46.443Z,-0.32
2019-02-27T05:51:15.819Z,-0.27
2019-02-27T05:53:45.203Z,-0.32
2019-02-27T05:56:16.277Z,-0.33
2019-02-27T05:58:45.857Z,-0.31
2019-02-27T06:01:15.208Z,-0.41
2019-02-27T06:03:44.580Z,-0.39
2019-02-27T06:06:13.933Z,-0.31
2019-02-27T06:08:43.321Z,-0.29
2019-02-27T06:11:12.672Z,-0.29
2019-02-27T06:13:44.959Z,-0.35
2019-02-27T06:16:13.570Z,-0.40
2019-02-27T06:18:42.973Z,-0.55
2019-02-27T06:21:13.371Z,-0.58
2019-02-27T06:23:43.389Z,-0.75
2019-02-27T06:26:12.744Z,-0.80
2019-02-27T06:28:42.119Z,-0.81
2019-02-27T06:31:11.474Z,-0.80
2019-02-27T06:33:45.083Z,-0.80
2019-02-27T06:36:11.894Z,-0.71
2019-02-27T06:38:41.282Z,-0.66
2019-02-27T06:41:15.403Z,-0.62
2019-02-27T06:43:41.721Z,-0.59
2019-02-27T06:46:11.068Z,-0.58
2019-02-27T06:48:43.319Z,-0.60
2019-02-27T06:51:11.569Z,-0.53
2019-02-27T06:53:40.944Z,-0.47
2019-02-27T06:56:10.289Z,-0.31
2019-02-27T06:58:39.674Z,-0.33
2019-02-27T07:01:09.801Z,-0.17
2019-02-27T07:03:40.088Z,-0.16
2019-02-27T07:06:09.439Z,-0.13
2019-02-27T07:08:38.819Z,-0.01
2019-02-27T07:11:10.662Z,0.04
2019-02-27T07:13:39.242Z,0.14
2019-02-27T07:16:08.592Z,0.12
2019-02-27T07:18:41.478Z,0.21
2019-02-27T07:21:09.188Z,0.30
2019-02-27T07:23:38.556Z,0.23
2019-02-27T07:26:07.908Z,0.19
2019-02-27T07:28:37.287Z,0.20
2019-02-27T07:31:06.632Z,0.35
2019-02-27T07:33:37.961Z,0.64
2019-02-27T07:36:07.044Z,0.85
2019-02-27T07:38:36.434Z,0.86
2019-02-27T07:41:05.794Z,0.74
2019-02-27T07:43:35.219Z,0.73
2019-02-27T07:46:04.595Z,0.77
2019-02-27T07:48:34.020Z,0.95
2019-02-27T07:51:03.437Z,1.03
2019-02-27T07:53:32.817Z,1.15
2019-02-27T07:56:02.612Z,1.27
2019-02-27T07:58:33.651Z,1.38
2019-02-27T08:01:04.630Z,1.42
2019-02-27T08:03:34.271Z,1.59
2019-02-27T08:06:03.617Z,1.69
2019-02-27T08:08:32.988Z,1.70
2019-02-27T08:11:02.333Z,1.79
2019-02-27T08:13:31.730Z,1.94
2019-02-27T08:16:01.075Z,2.14
2019-02-27T08:18:36.179Z,2.31
2019-02-27T08:21:01.595Z,2.53
2019-02-27T08:23:31.740Z,2.69
2019-02-27T08:26:04.806Z,2.73
2019-02-27T08:28:33.268Z,2.90
2019-02-27T08:31:03.841Z,3.00
2019-02-27T08:33:33.246Z,3.24
2019-02-27T08:36:02.644Z,3.43
2019-02-27T08:38:31.982Z,3.72
2019-02-27T08:41:01.354Z,3.79
2019-02-27T08:43:30.776Z,3.99
2019-02-27T08:46:02.392Z,4.32
2019-02-27T08:48:31.253Z,4.56
2019-02-27T08:51:05.702Z,5.01
2019-02-27T08:53:31.743Z,6.24
2019-02-27T08:56:01.191Z,7.99
2019-02-27T08:58:32.791Z,8.77
2019-02-27T09:01:01.676Z,9.43
2019-02-27T09:03:31.020Z,10.34
2019-02-27T09:06:00.477Z,10.66
2019-02-27T09:08:31.439Z,10.62
2019-02-27T09:11:05.373Z,10.70
2019-02-27T09:13:32.001Z,10.84
2019-02-27T09:16:01.390Z,11.06
2019-02-27T09:18:33.369Z,11.56
2019-02-27T09:21:01.808Z,11.58
2019-02-27T09:23:31.155Z,11.34
2019-02-27T09:26:02.702Z,11.33
2019-02-27T09:28:31.589Z,10.74
2019-02-27T09:31:04.318Z,9.63
2019-02-27T09:33:38.562Z,9.15
2019-02-27T09:36:03.066Z,9.23
2019-02-27T09:38:32.418Z,8.53
2019-02-27T09:41:01.791Z,8.48
2019-02-27T09:43:32.253Z,7.96
2019-02-27T09:46:01.809Z,7.83
2019-02-27T09:48:33.432Z,7.48
2019-02-27T09:51:02.245Z,6.91
2019-02-27T09:53:33.910Z,6.94
2019-02-27T09:56:03.061Z,6.77
2019-02-27T09:58:32.414Z,6.50
2019-02-27T10:01:16.338Z,6.24
2019-02-27T10:03:45.818Z,6.12
2019-02-27T10:06:15.192Z,5.88
2019-02-27T10:08:44.533Z,5.79
2019-02-27T10:11:13.908Z,5.74
2019-02-27T10:13:43.263Z,5.75
2019-02-27T10:16:12.876Z,5.75
2019-02-27T10:18:42.831Z,5.60
2019-02-27T10:21:12.729Z,5.60
2019-02-27T10:23:42.894Z,5.74
2019-02-27T10:26:12.277Z,5.70
2019-02-27T10:28:41.612Z,5.63
2019-02-27T10:31:12.653Z,5.61
2019-02-27T10:33:42.867Z,5.38
2019-02-27T10:36:12.863Z,5.30
2019-02-27T10:38:42.212Z,5.42
2019-02-27T10:41:11.579Z,5.40
2019-02-27T10:43:40.932Z,5.44
2019-02-27T10:46:10.672Z,5.37
2019-02-27T10:48:40.019Z,5.31
2019-02-27T10:51:10.129Z,5.27
2019-02-27T10:53:39.531Z,5.40
2019-02-27T10:56:08.906Z,5.51
2019-02-27T10:58:38.264Z,5.65
2019-02-27T11:01:07.709Z,5.85
2019-02-27T11:03:37.043Z,6.01
2019-02-27T11:06:06.415Z,6.41
2019-02-27T11:08:35.989Z,6.35
2019-02-27T11:11:05.333Z,6.51
2019-02-27T11:13:34.707Z,6.69
2019-02-27T11:16:04.121Z,6.92
2019-02-27T11:18:33.505Z,6.91
2019-02-27T11:21:02.847Z,6.98
2019-02-27T11:23:32.222Z,6.94
2019-02-27T11:26:01.567Z,7.13
2019-02-27T11:28:30.943Z,7.28
2019-02-27T11:31:00.281Z,7.21
2019-02-27T11:33:32.690Z,7.31
2019-02-27T11:36:03.151Z,7.15
2019-02-27T11:38:31.838Z,7.21
2019-02-27T11:41:01.211Z,7.16
2019-02-27T11:43:30.650Z,7.28
2019-02-27T11:46:00.005Z,7.28
2019-02-27T11:48:29.381Z,7.52
2019-02-27T11:50:58.726Z,7.84
2019-02-27T11:53:28.103Z,7.70
2019-02-27T11:55:57.444Z,7.99
2019-02-27T11:58:26.934Z,7.96
2019-02-27T12:00:56.352Z,8.36
2019-02-27T12:03:25.737Z,8.82
2019-02-27T12:05:55.075Z,9.01
2019-02-27T12:08:25.751Z,10.12
2019-02-27T12:10:55.704Z,11.07
2019-02-27T12:13:25.083Z,11.93
2019-02-27T12:15:54.437Z,12.47
2019-02-27T12:18:24.435Z,13.51
2019-02-27T12:20:54.158Z,13.56
2019-02-27T12:23:23.538Z,14.15
2019-02-27T12:25:53.157Z,15.35
2019-02-27T12:28:23.212Z,16.02
2019-02-27T12:30:53.164Z,16.88
2019-02-27T12:33:22.539Z,16.74
2019-02-27T12:35:51.890Z,16.87
2019-02-27T12:38:21.270Z,17.79
2019-02-27T12:40:50.619Z,18.38
2019-02-27T12:43:20.004Z,18.52
2019-02-27T12:45:49.356Z,17.89
2019-02-27T12:48:18.723Z,17.77
2019-02-27T12:50:48.070Z,17.49
2019-02-27T12:53:20.689Z,17.25
2019-02-27T12:55:48.491Z,16.31
2019-02-27T12:58:17.871Z,15.72
2019-02-27T13:00:47.220Z,15.48
2019-02-27T13:03:16.607Z,15.86
2019-02-27T13:05:45.977Z,15.80
2019-02-27T13:08:16.333Z,15.84
2019-02-27T13:10:46.703Z,15.52
2019-02-27T13:13:17.552Z,15.52
2019-02-27T13:15:46.908Z,15.59
2019-02-27T13:18:16.283Z,15.33
2019-02-27T13:20:46.282Z,15.08
2019-02-27T13:23:15.684Z,16.11
2019-02-27T13:25:45.033Z,16.03
2019-02-27T13:28:15.561Z,15.00
2019-02-27T13:30:45.007Z,14.50
2019-02-27T13:33:14.439Z,14.58
2019-02-27T13:35:43.789Z,14.10
2019-02-27T13:38:17.696Z,14.06
2019-02-27T13:40:44.217Z,14.10
2019-02-27T13:43:13.569Z,13.82
2019-02-27T13:45:47.282Z,13.88
2019-02-27T13:48:14.113Z,13.80
2019-02-27T13:50:43.485Z,13.70
2019-02-27T13:53:12.833Z,13.43
2019-02-27T13:55:42.208Z,13.48
2019-02-27T13:58:11.557Z,13.38
2019-02-27T14:00:40.937Z,13.37
2019-02-27T14:03:12.700Z,13.34
2019-02-27T14:05:41.504Z,13.62
2019-02-27T14:08:10.852Z,13.47
2019-02-27T14:10:40.223Z,13.57
2019-02-27T14:13:09.958Z,13.46
2019-02-27T14:15:39.397Z,13.46
2019-02-27T14:18:08.744Z,13.25
2019-02-27T14:20:38.126Z,13.31
2019-02-27T14:23:07.475Z,13.39
2019-02-27T14:25:36.850Z,13.32
2019-02-27T14:28:06.193Z,13.34
2019-02-27T14:30:49.765Z,13.32
2019-02-27T14:33:19.586Z,13.30
2019-02-27T14:35:49.888Z,13.24
2019-02-27T14:38:21.852Z,13.35
2019-02-27T14:40:50.624Z,13.29
2019-02-27T14:43:19.982Z,13.47
2019-02-27T14:45:50.792Z,13.37
2019-02-27T14:48:21.459Z,13.32
2019-02-27T14:50:51.438Z,13.40
2019-02-27T14:53:20.801Z,13.33
2019-02-27T14:55:50.669Z,13.28
2019-02-27T14:58:24.020Z,13.24
2019-02-27T15:00:51.099Z,13.27
2019-02-27T15:03:20.435Z,13.25
2019-02-27T15:05:49.825Z,13.21
2019-02-27T15:08:19.175Z,13.17
2019-02-27T15:10:48.557Z,13.15
2019-02-27T15:13:17.909Z,13.07
2019-02-27T15:15:47.317Z,12.98
2019-02-27T15:18:16.807Z,12.90
2019-02-27T15:20:46.184Z,12.84
2019-02-27T15:23:15.536Z,12.74
2019-02-27T15:25:44.916Z,12.70
2019-02-27T15:28:14.263Z,12.68
2019-02-27T15:30:46.455Z,12.61
2019-02-27T15:33:16.387Z,12.47
2019-02-27T15:35:45.840Z,12.44
2019-02-27T15:38:15.191Z,12.41
2019-02-27T15:40:44.579Z,12.30
2019-02-27T15:43:16.755Z,12.19
2019-02-27T15:45:47.960Z,12.13
2019-02-27T15:48:16.072Z,12.03
2019-02-27T15:50:45.453Z,11.97
2019-02-27T15:53:15.791Z,11.87
2019-02-27T15:55:45.279Z,11.77
2019-02-27T15:58:14.628Z,11.65
2019-02-27T16:00:43.999Z,11.57
2019-02-27T16:03:13.386Z,11.49
2019-02-27T16:05:42.736Z,11.40
2019-02-27T16:08:12.111Z,11.36
2019-02-27T16:10:43.730Z,11.27
2019-02-27T16:13:12.803Z,11.18
2019-02-27T16:15:42.216Z,11.08
2019-02-27T16:18:11.592Z,11.01
2019-02-27T16:20:40.940Z,10.96
2019-02-27T16:23:10.316Z,10.86
2019-02-27T16:25:39.669Z,10.78
2019-02-27T16:28:12.076Z,10.69
2019-02-27T16:30:40.092Z,10.62
2019-02-27T16:33:09.472Z,10.50
2019-02-27T16:35:41.998Z,10.44
2019-02-27T16:38:10.133Z,10.39
2019-02-27T16:40:41.192Z,10.28
2019-02-27T16:43:13.444Z,10.24
2019-02-27T16:45:41.615Z,10.15
2019-02-27T16:48:11.399Z,10.13
2019-02-27T16:50:40.729Z,10.07
2019-02-27T16:53:10.118Z,10.02
2019-02-27T16:55:39.667Z,9.95
2019-02-27T16:58:09.030Z,9.93
2019-02-27T17:00:38.640Z,9.87
2019-02-27T17:03:13.105Z,9.83
2019-02-27T17:05:40.232Z,9.76
2019-02-27T17:08:10.130Z,9.71
2019-02-27T17:10:40.001Z,9.62
2019-02-27T17:13:14.393Z,9.57
2019-02-27T17:15:40.429Z,9.51
2019-02-27T17:18:09.819Z,9.47
2019-02-27T17:20:39.249Z,9.46
2019-02-27T17:23:10.938Z,9.44
2019-02-27T17:25:39.678Z,9.44
2019-02-27T17:28:09.056Z,9.41
2019-02-27T17:30:38.421Z,9.40
2019-02-27T17:33:07.787Z,9.34
2019-02-27T17:35:37.150Z,9.29
2019-02-27T17:38:06.594Z,9.24
2019-02-27T17:40:37.576Z,9.20
2019-02-27T17:43:07.231Z,9.16
2019-02-27T17:45:36.620Z,9.14
2019-02-27T17:48:06.055Z,9.13
2019-02-27T17:50:35.405Z,9.10
2019-02-27T17:53:04.795Z,9.06
2019-02-27T17:55:34.200Z,9.01
2019-02-27T17:58:03.577Z,8.97
2019-02-27T18:00:37.502Z,8.96
2019-02-27T18:03:06.885Z,8.92
2019-02-27T18:05:36.214Z,8.89
2019-02-27T18:08:05.585Z,8.88
2019-02-27T18:10:37.630Z,8.86
2019-02-27T18:13:05.988Z,8.87
2019-02-27T18:15:35.508Z,8.89
2019-02-27T18:18:07.185Z,8.91
2019-02-27T18:20:36.087Z,8.89
2019-02-27T18:23:05.478Z,8.89
2019-02-27T18:25:34.827Z,8.89
2019-02-27T18:28:04.213Z,8.93
2019-02-27T18:30:33.587Z,8.94
2019-02-27T18:33:02.994Z,8.94
2019-02-27T18:35:32.395Z,8.93
2019-02-27T18:38:01.756Z,8.91
2019-02-27T18:40:33.989Z,8.90
2019-02-27T18:43:06.305Z,8.91
2019-02-27T18:45:35.741Z,8.90
2019-02-27T18:48:10.093Z,8.89
2019-02-27T18:50:39.018Z,8.88
2019-02-27T18:53:12.954Z,8.90
2019-02-27T18:55:39.712Z,8.89
2019-02-27T18:58:09.243Z,8.86
2019-02-27T19:00:38.664Z,8.81
2019-02-27T19:03:10.584Z,8.73
2019-02-27T19:05:42.051Z,8.64
2019-02-27T19:08:11.718Z,8.60
2019-02-27T19:10:42.550Z,8.58
2019-02-27T19:13:12.415Z,8.57
2019-02-27T19:15:45.499Z,8.56
2019-02-27T19:18:12.834Z,8.48
2019-02-27T19:20:44.640Z,8.48
2019-02-27T19:23:17.185Z,8.47
2019-02-27T19:25:45.140Z,8.43
2019-02-27T19:28:14.489Z,8.43
2019-02-27T19:30:43.881Z,8.38
2019-02-27T19:33:13.225Z,8.36
2019-02-27T19:35:42.669Z,8.30
2019-02-27T19:38:13.853Z,8.26
2019-02-27T19:40:43.305Z,8.24
2019-02-27T19:43:12.697Z,8.21
2019-02-27T19:45:42.412Z,8.16
2019-02-27T19:48:11.887Z,8.12
2019-02-27T19:50:45.239Z,8.08
2019-02-27T19:53:12.470Z,8.07
2019-02-27T19:55:41.931Z,8.03
2019-02-27T19:58:11.380Z,7.96
2019-02-27T20:00:47.949Z,7.96
2019-02-27T20:03:11.946Z,7.92
2019-02-27T20:05:41.321Z,7.84
2019-02-27T20:08:12.956Z,7.79
2019-02-27T20:10:44.066Z,7.75
2019-02-27T20:13:13.716Z,7.72
2019-02-27T20:15:45.657Z,7.76
2019-02-27T20:18:14.127Z,7.70
2019-02-27T20:20:43.503Z,7.70
2019-02-27T20:23:12.916Z,7.73
2019-02-27T20:25:44.219Z,7.74
2019-02-27T20:28:13.326Z,7.69
2019-02-27T20:30:42.761Z,7.69
2019-02-27T20:33:12.171Z,7.76
2019-02-27T20:35:41.619Z,7.76
2019-02-27T20:38:15.298Z,7.80
2019-02-27T20:40:42.035Z,7.87
2019-02-27T20:43:11.382Z,7.92
2019-02-27T20:45:42.772Z,7.88
2019-02-27T20:48:11.819Z,7.94
2019-02-27T20:50:44.094Z,7.98
2019-02-27T20:53:14.372Z,7.99
2019-02-27T20:55:43.759Z,8.00
2019-02-27T20:58:15.967Z,7.99
2019-02-27T21:00:44.246Z,7.97
2019-02-27T21:03:13.584Z,7.98
2019-02-27T21:05:42.951Z,7.95
2019-02-27T21:08:12.373Z,7.92
2019-02-27T21:10:41.765Z,7.84
2019-02-27T21:13:15.615Z,7.74
2019-02-27T21:15:42.195Z,7.65
2019-02-27T21:18:11.534Z,7.54
2019-02-27T21:20:42.122Z,7.47
2019-02-27T21:23:12.044Z,7.35
2019-02-27T21:25:41.419Z,7.24
2019-02-27T21:28:10.787Z,7.19
2019-02-27T21:30:40.123Z,7.12
2019-02-27T21:33:11.141Z,7.07
2019-02-27T21:35:40.591Z,7.14
2019-02-27T21:38:09.969Z,7.13
2019-02-27T21:40:39.322Z,7.14
2019-02-27T21:43:08.698Z,7.19
2019-02-27T21:45:38.356Z,7.19
2019-02-27T21:48:07.790Z,7.19
2019-02-27T21:50:39.861Z,7.19
2019-02-27T21:53:08.306Z,7.20
2019-02-27T21:55:37.663Z,7.16
2019-02-27T21:58:07.030Z,7.18
2019-02-27T22:00:36.458Z,7.17
2019-02-27T22:03:05.820Z,7.15
2019-02-27T22:05:42.572Z,7.09
2019-02-27T22:08:06.396Z,7.01
2019-02-27T22:10:35.782Z,6.93
2019-02-27T22:13:09.385Z,6.90
2019-02-27T22:15:36.196Z,6.80
2019-02-27T22:18:08.260Z,6.72
2019-02-27T22:20:36.618Z,6.64
2019-02-27T22:23:05.984Z,6.58
2019-02-27T22:25:35.336Z,6.54
2019-02-27T22:28:04.703Z,6.53
2019-02-27T22:30:34.048Z,6.50
2019-02-27T22:33:03.420Z,6.51
2019-02-27T22:35:37.358Z,6.49
2019-02-27T22:38:05.713Z,6.43
2019-02-27T22:40:37.959Z,6.40
2019-02-27T22:43:05.942Z,6.35
2019-02-27T22:45:36.068Z,6.33
2019-02-27T22:48:07.075Z,6.31
2019-02-27T22:50:38.352Z,6.26
2019-02-27T22:53:07.481Z,6.17
2019-02-27T22:55:36.823Z,6.12
2019-02-27T22:58:06.276Z,6.05
2019-02-27T23:00:56.532Z,5.99
2019-02-27T23:03:29.206Z,5.95
2019-02-27T23:05:58.550Z,5.90
2019-02-27T23:08:27.926Z,5.90
2019-02-27T23:10:57.267Z,5.86
2019-02-27T23:13:26.644Z,5.86
2019-02-27T23:15:58.831Z,5.85
2019-02-27T23:18:27.053Z,5.85
2019-02-27T23:20:56.446Z,5.87
2019-02-27T23:23:25.816Z,5.87
2019-02-27T23:25:55.157Z,5.87
2019-02-27T23:28:24.782Z,5.87
2019-02-27T23:30:54.121Z,5.89
2019-02-27T23:33:24.683Z,5.86
2019-02-27T23:35:54.124Z,5.88
2019-02-27T23:38:23.477Z,5.93
2019-02-27T23:40:52.818Z,5.96
2019-02-27T23:43:22.750Z,5.98
2019-02-27T23:45:52.088Z,5.99
2019-02-27T23:48:21.453Z,6.00
2019-02-27T23:50:50.788Z,6.04
2019-02-27T23:53:20.149Z,6.03
2019-02-27T23:55:49.528Z,6.01
2019-02-27T23:58:19.060Z,6.02
